sensor_id;sensor_type;location;lat;lon;timestamp;temperature;humidity
72114;SHT31;59989;46.220;19.888;2022-11-15T00:03:21;4.12;98.55
72114;SHT31;59989;46.220;19.888;2022-11-15T00:06:42;4.12;98.59
72114;SHT31;59989;46.220;19.888;2022-11-15T00:10:03;4.08;98.58
72114;SHT31;59989;46.220;19.888;2022-11-15T00:13:24;4.07;98.59
72114;SHT31;59989;46.220;19.888;2022-11-15T00:16:46;4.05;98.62
72114;SHT31;59989;46.220;19.888;2022-11-15T00:20:07;4.09;98.64
72114;SHT31;59989;46.220;19.888;2022-11-15T00:23:28;4.08;98.62
72114;SHT31;59989;46.220;19.888;2022-11-15T00:26:50;4.07;98.59
72114;SHT31;59989;46.220;19.888;2022-11-15T00:30:12;4.07;98.63
72114;SHT31;59989;46.220;19.888;2022-11-15T00:33:33;4.08;98.64
72114;SHT31;59989;46.220;19.888;2022-11-15T00:36:54;4.05;98.64
72114;SHT31;59989;46.220;19.888;2022-11-15T00:40:20;4.08;98.62
72114;SHT31;59989;46.220;19.888;2022-11-15T00:43:41;4.09;98.68
72114;SHT31;59989;46.220;19.888;2022-11-15T00:47:04;4.07;98.66
72114;SHT31;59989;46.220;19.888;2022-11-15T00:50:27;4.08;98.64
72114;SHT31;59989;46.220;19.888;2022-11-15T00:53:48;4.11;98.68
72114;SHT31;59989;46.220;19.888;2022-11-15T00:57:09;4.14;98.65
72114;SHT31;59989;46.220;19.888;2022-11-15T01:00:30;4.17;98.60
72114;SHT31;59989;46.220;19.888;2022-11-15T01:03:51;4.18;98.56
72114;SHT31;59989;46.220;19.888;2022-11-15T01:07:12;4.18;98.56
72114;SHT31;59989;46.220;19.888;2022-11-15T01:10:34;4.19;98.55
72114;SHT31;59989;46.220;19.888;2022-11-15T01:13:55;4.17;98.50
72114;SHT31;59989;46.220;19.888;2022-11-15T01:17:16;4.19;98.45
72114;SHT31;59989;46.220;19.888;2022-11-15T01:20:41;4.22;98.42
72114;SHT31;59989;46.220;19.888;2022-11-15T01:24:02;4.24;98.40
72114;SHT31;59989;46.220;19.888;2022-11-15T01:27:24;4.25;98.30
72114;SHT31;59989;46.220;19.888;2022-11-15T01:30:44;4.21;98.22
72114;SHT31;59989;46.220;19.888;2022-11-15T01:34:05;4.21;98.12
72114;SHT31;59989;46.220;19.888;2022-11-15T01:37:26;4.24;98.11
72114;SHT31;59989;46.220;19.888;2022-11-15T01:40:48;4.26;98.10
72114;SHT31;59989;46.220;19.888;2022-11-15T01:47:53;4.21;98.01
72114;SHT31;59989;46.220;19.888;2022-11-15T01:51:16;4.17;97.88
72114;SHT31;59989;46.220;19.888;2022-11-15T01:54:38;4.19;97.95
72114;SHT31;59989;46.220;19.888;2022-11-15T01:58:02;4.14;97.89
72114;SHT31;59989;46.220;19.888;2022-11-15T02:01:26;4.14;97.85
72114;SHT31;59989;46.220;19.888;2022-11-15T02:04:49;4.15;97.89
72114;SHT31;59989;46.220;19.888;2022-11-15T02:08:10;4.15;97.82
72114;SHT31;59989;46.220;19.888;2022-11-15T02:11:41;4.17;97.86
72114;SHT31;59989;46.220;19.888;2022-11-15T02:15:04;4.17;97.82
72114;SHT31;59989;46.220;19.888;2022-11-15T02:18:29;4.21;97.85
72114;SHT31;59989;46.220;19.888;2022-11-15T02:25:45;4.19;97.71
72114;SHT31;59989;46.220;19.888;2022-11-15T02:37:34;4.22;97.78
72114;SHT31;59989;46.220;19.888;2022-11-15T02:44:26;4.17;97.62
72114;SHT31;59989;46.220;19.888;2022-11-15T02:47:51;4.19;97.71
72114;SHT31;59989;46.220;19.888;2022-11-15T02:51:15;4.22;97.66
72114;SHT31;59989;46.220;19.888;2022-11-15T02:54:37;4.22;97.57
72114;SHT31;59989;46.220;19.888;2022-11-15T03:05:29;4.26;97.45
72114;SHT31;59989;46.220;19.888;2022-11-15T03:12:16;4.26;97.42
72114;SHT31;59989;46.220;19.888;2022-11-15T03:15:50;4.25;97.50
72114;SHT31;59989;46.220;19.888;2022-11-15T03:22:41;4.21;97.49
72114;SHT31;59989;46.220;19.888;2022-11-15T03:26:06;4.18;97.43
72114;SHT31;59989;46.220;19.888;2022-11-15T03:29:32;4.15;97.47
72114;SHT31;59989;46.220;19.888;2022-11-15T03:32:56;4.17;97.44
72114;SHT31;59989;46.220;19.888;2022-11-15T03:36:19;4.15;97.48
72114;SHT31;59989;46.220;19.888;2022-11-15T03:39:42;4.17;97.42
72114;SHT31;59989;46.220;19.888;2022-11-15T03:47:12;4.11;97.53
72114;SHT31;59989;46.220;19.888;2022-11-15T03:50:35;4.12;97.48
72114;SHT31;59989;46.220;19.888;2022-11-15T03:53:56;4.09;97.40
72114;SHT31;59989;46.220;19.888;2022-11-15T03:57:17;4.11;97.42
72114;SHT31;59989;46.220;19.888;2022-11-15T04:00:41;4.12;97.41
72114;SHT31;59989;46.220;19.888;2022-11-15T04:04:02;4.09;97.35
72114;SHT31;59989;46.220;19.888;2022-11-15T04:07:23;4.11;97.34
72114;SHT31;59989;46.220;19.888;2022-11-15T04:10:44;4.14;97.37
72114;SHT31;59989;46.220;19.888;2022-11-15T04:14:06;4.11;97.35
72114;SHT31;59989;46.220;19.888;2022-11-15T04:17:27;4.11;97.30
72114;SHT31;59989;46.220;19.888;2022-11-15T04:20:48;4.09;97.33
72114;SHT31;59989;46.220;19.888;2022-11-15T04:24:28;4.09;97.25
72114;SHT31;59989;46.220;19.888;2022-11-15T04:27:48;4.11;97.29
72114;SHT31;59989;46.220;19.888;2022-11-15T04:31:09;4.14;97.35
72114;SHT31;59989;46.220;19.888;2022-11-15T04:34:30;4.15;97.31
72114;SHT31;59989;46.220;19.888;2022-11-15T04:37:51;4.15;97.29
72114;SHT31;59989;46.220;19.888;2022-11-15T04:41:12;4.12;97.24
72114;SHT31;59989;46.220;19.888;2022-11-15T04:44:34;4.11;97.22
72114;SHT31;59989;46.220;19.888;2022-11-15T04:47:55;4.12;97.28
72114;SHT31;59989;46.220;19.888;2022-11-15T04:51:16;4.12;97.30
72114;SHT31;59989;46.220;19.888;2022-11-15T04:54:38;4.14;97.36
72114;SHT31;59989;46.220;19.888;2022-11-15T04:57:59;4.09;97.33
72114;SHT31;59989;46.220;19.888;2022-11-15T05:01:22;4.12;97.32
72114;SHT31;59989;46.220;19.888;2022-11-15T05:04:43;4.15;97.29
72114;SHT31;59989;46.220;19.888;2022-11-15T05:08:05;4.25;97.18
72114;SHT31;59989;46.220;19.888;2022-11-15T05:11:26;4.25;97.19
72114;SHT31;59989;46.220;19.888;2022-11-15T05:14:48;4.25;97.11
72114;SHT31;59989;46.220;19.888;2022-11-15T05:18:10;4.26;97.08
72114;SHT31;59989;46.220;19.888;2022-11-15T05:21:31;4.29;97.12
72114;SHT31;59989;46.220;19.888;2022-11-15T05:24:52;4.35;97.17
72114;SHT31;59989;46.220;19.888;2022-11-15T05:28:13;4.42;97.09
72114;SHT31;59989;46.220;19.888;2022-11-15T05:31:39;4.45;97.05
72114;SHT31;59989;46.220;19.888;2022-11-15T05:35:00;4.49;96.95
72114;SHT31;59989;46.220;19.888;2022-11-15T05:38:21;4.53;96.87
72114;SHT31;59989;46.220;19.888;2022-11-15T05:41:50;4.56;96.86
72114;SHT31;59989;46.220;19.888;2022-11-15T05:45:12;4.59;96.79
72114;SHT31;59989;46.220;19.888;2022-11-15T05:48:34;4.60;96.82
72114;SHT31;59989;46.220;19.888;2022-11-15T05:51:57;4.62;96.77
72114;SHT31;59989;46.220;19.888;2022-11-15T05:55:18;4.60;96.65
72114;SHT31;59989;46.220;19.888;2022-11-15T05:58:39;4.60;96.75
72114;SHT31;59989;46.220;19.888;2022-11-15T06:02:00;4.66;96.75
72114;SHT31;59989;46.220;19.888;2022-11-15T06:05:22;4.66;96.80
72114;SHT31;59989;46.220;19.888;2022-11-15T06:08:43;4.69;96.81
72114;SHT31;59989;46.220;19.888;2022-11-15T06:12:04;4.74;96.81
72114;SHT31;59989;46.220;19.888;2022-11-15T06:15:25;4.79;96.81
72114;SHT31;59989;46.220;19.888;2022-11-15T06:18:46;4.84;96.83
72114;SHT31;59989;46.220;19.888;2022-11-15T06:22:07;4.87;96.81
72114;SHT31;59989;46.220;19.888;2022-11-15T06:25:28;4.95;96.77
72114;SHT31;59989;46.220;19.888;2022-11-15T06:28:49;5.04;96.73
72114;SHT31;59989;46.220;19.888;2022-11-15T06:32:10;5.07;96.71
72114;SHT31;59989;46.220;19.888;2022-11-15T06:35:33;5.13;96.67
72114;SHT31;59989;46.220;19.888;2022-11-15T06:38:54;5.21;96.67
72114;SHT31;59989;46.220;19.888;2022-11-15T06:42:16;5.27;96.42
72114;SHT31;59989;46.220;19.888;2022-11-15T06:45:37;5.36;96.34
72114;SHT31;59989;46.220;19.888;2022-11-15T06:48:58;5.44;96.26
72114;SHT31;59989;46.220;19.888;2022-11-15T06:52:25;5.55;96.29
72114;SHT31;59989;46.220;19.888;2022-11-15T06:55:46;5.65;96.26
72114;SHT31;59989;46.220;19.888;2022-11-15T06:59:13;5.72;96.18
72114;SHT31;59989;46.220;19.888;2022-11-15T07:02:42;5.86;96.09
72114;SHT31;59989;46.220;19.888;2022-11-15T07:06:04;5.87;96.11
72114;SHT31;59989;46.220;19.888;2022-11-15T07:09:29;5.89;96.06
72114;SHT31;59989;46.220;19.888;2022-11-15T07:12:50;5.97;95.94
72114;SHT31;59989;46.220;19.888;2022-11-15T07:16:12;5.97;95.94
72114;SHT31;59989;46.220;19.888;2022-11-15T07:19:33;6.07;95.53
72114;SHT31;59989;46.220;19.888;2022-11-15T07:23:01;6.11;95.18
72114;SHT31;59989;46.220;19.888;2022-11-15T07:26:22;6.13;95.01
72114;SHT31;59989;46.220;19.888;2022-11-15T07:29:44;6.16;95.04
72114;SHT31;59989;46.220;19.888;2022-11-15T07:33:04;6.21;94.94
72114;SHT31;59989;46.220;19.888;2022-11-15T07:36:27;6.27;95.00
72114;SHT31;59989;46.220;19.888;2022-11-15T07:39:48;6.27;94.87
72114;SHT31;59989;46.220;19.888;2022-11-15T07:43:10;6.30;94.89
72114;SHT31;59989;46.220;19.888;2022-11-15T07:46:31;6.30;94.92
72114;SHT31;59989;46.220;19.888;2022-11-15T07:49:52;6.28;94.91
72114;SHT31;59989;46.220;19.888;2022-11-15T07:53:13;6.32;94.98
72114;SHT31;59989;46.220;19.888;2022-11-15T07:56:33;6.32;95.10
72114;SHT31;59989;46.220;19.888;2022-11-15T07:59:54;6.42;95.14
72114;SHT31;59989;46.220;19.888;2022-11-15T08:03:16;6.44;95.05
72114;SHT31;59989;46.220;19.888;2022-11-15T08:06:37;6.41;95.07
72114;SHT31;59989;46.220;19.888;2022-11-15T08:09:59;6.45;95.21
72114;SHT31;59989;46.220;19.888;2022-11-15T08:13:21;6.52;95.21
72114;SHT31;59989;46.220;19.888;2022-11-15T08:16:43;6.52;95.19
72114;SHT31;59989;46.220;19.888;2022-11-15T08:20:04;6.55;95.30
72114;SHT31;59989;46.220;19.888;2022-11-15T08:23:25;6.58;95.23
72114;SHT31;59989;46.220;19.888;2022-11-15T08:26:46;6.58;95.21
72114;SHT31;59989;46.220;19.888;2022-11-15T08:30:08;6.68;95.27
72114;SHT31;59989;46.220;19.888;2022-11-15T08:33:31;6.71;95.16
72114;SHT31;59989;46.220;19.888;2022-11-15T08:36:53;6.95;95.06
72114;SHT31;59989;46.220;19.888;2022-11-15T08:40:15;7.04;94.87
72114;SHT31;59989;46.220;19.888;2022-11-15T08:43:36;7.14;94.56
72114;SHT31;59989;46.220;19.888;2022-11-15T08:46:57;7.24;94.67
72114;SHT31;59989;46.220;19.888;2022-11-15T08:50:18;7.24;94.33
72114;SHT31;59989;46.220;19.888;2022-11-15T08:53:39;7.37;94.38
72114;SHT31;59989;46.220;19.888;2022-11-15T08:57:00;7.46;94.25
72114;SHT31;59989;46.220;19.888;2022-11-15T09:00:21;7.52;94.15
72114;SHT31;59989;46.220;19.888;2022-11-15T09:03:42;7.61;93.93
72114;SHT31;59989;46.220;19.888;2022-11-15T09:07:04;7.69;93.62
72114;SHT31;59989;46.220;19.888;2022-11-15T09:10:25;7.68;93.54
72114;SHT31;59989;46.220;19.888;2022-11-15T09:13:45;7.78;93.49
72114;SHT31;59989;46.220;19.888;2022-11-15T09:17:09;7.75;92.93
72114;SHT31;59989;46.220;19.888;2022-11-15T09:20:30;7.79;92.96
72114;SHT31;59989;46.220;19.888;2022-11-15T09:23:52;7.86;92.85
72114;SHT31;59989;46.220;19.888;2022-11-15T09:27:12;8.05;92.74
72114;SHT31;59989;46.220;19.888;2022-11-15T09:30:34;8.25;92.32
72114;SHT31;59989;46.220;19.888;2022-11-15T09:33:55;8.30;91.96
72114;SHT31;59989;46.220;19.888;2022-11-15T09:37:16;8.55;91.96
72114;SHT31;59989;46.220;19.888;2022-11-15T09:40:38;8.75;91.18
72114;SHT31;59989;46.220;19.888;2022-11-15T09:44:24;9.04;90.76
72114;SHT31;59989;46.220;19.888;2022-11-15T09:48:14;9.16;89.59
72114;SHT31;59989;46.220;19.888;2022-11-15T09:52:03;9.23;89.06
72114;SHT31;59989;46.220;19.888;2022-11-15T09:55:09;9.04;89.79
72114;SHT31;59989;46.220;19.888;2022-11-15T10:04:46;9.33;90.13
72114;SHT31;59989;46.220;19.888;2022-11-15T10:11:29;9.46;89.06
72114;SHT31;59989;46.220;19.888;2022-11-15T10:14:41;9.42;89.15
72114;SHT31;59989;46.220;19.888;2022-11-15T10:17:50;9.50;88.69
72114;SHT31;59989;46.220;19.888;2022-11-15T10:20:59;9.37;88.79
72114;SHT31;59989;46.220;19.888;2022-11-15T10:24:10;9.55;88.96
72114;SHT31;59989;46.220;19.888;2022-11-15T10:27:15;9.77;88.15
72114;SHT31;59989;46.220;19.888;2022-11-15T10:30:18;9.84;87.37
72114;SHT31;59989;46.220;19.888;2022-11-15T10:33:37;9.90;88.45
72114;SHT31;59989;46.220;19.888;2022-11-15T10:36:45;10.02;87.24
72114;SHT31;59989;46.220;19.888;2022-11-15T10:43:20;10.70;85.25
72114;SHT31;59989;46.220;19.888;2022-11-15T10:46:24;10.67;85.36
72114;SHT31;59989;46.220;19.888;2022-11-15T10:49:56;10.64;85.75
72114;SHT31;59989;46.220;19.888;2022-11-15T10:53:01;10.56;84.62
72114;SHT31;59989;46.220;19.888;2022-11-15T10:56:07;10.48;85.38
72114;SHT31;59989;46.220;19.888;2022-11-15T10:59:16;10.70;85.12
72114;SHT31;59989;46.220;19.888;2022-11-15T11:05:31;11.07;84.69
72114;SHT31;59989;46.220;19.888;2022-11-15T11:09:04;11.11;83.68
72114;SHT31;59989;46.220;19.888;2022-11-15T11:12:10;10.84;84.83
72114;SHT31;59989;46.220;19.888;2022-11-15T11:15:15;10.97;84.89
72114;SHT31;59989;46.220;19.888;2022-11-15T11:39:15;12.55;79.17
72114;SHT31;59989;46.220;19.888;2022-11-15T11:42:32;12.68;80.15
72114;SHT31;59989;46.220;19.888;2022-11-15T11:48:43;12.97;77.38
72114;SHT31;59989;46.220;19.888;2022-11-15T11:52:04;13.10;77.17
72114;SHT31;59989;46.220;19.888;2022-11-15T11:58:40;12.99;77.98
72114;SHT31;59989;46.220;19.888;2022-11-15T12:01:45;14.28;74.35
72114;SHT31;59989;46.220;19.888;2022-11-15T12:04:50;14.94;71.48
72114;SHT31;59989;46.220;19.888;2022-11-15T12:07:59;14.91;71.12
72114;SHT31;59989;46.220;19.888;2022-11-15T12:11:14;15.76;69.40
72114;SHT31;59989;46.220;19.888;2022-11-15T12:14:40;15.45;69.20
72114;SHT31;59989;46.220;19.888;2022-11-15T12:17:45;15.89;67.49
72114;SHT31;59989;46.220;19.888;2022-11-15T12:21:13;14.12;73.39
72114;SHT31;59989;46.220;19.888;2022-11-15T12:24:26;13.85;74.42
72114;SHT31;59989;46.220;19.888;2022-11-15T12:27:40;13.39;76.37
72114;SHT31;59989;46.220;19.888;2022-11-15T12:31:15;13.06;77.17
72114;SHT31;59989;46.220;19.888;2022-11-15T12:41:17;12.54;79.10
72114;SHT31;59989;46.220;19.888;2022-11-15T12:47:38;12.54;79.28
72114;SHT31;59989;46.220;19.888;2022-11-15T12:50:56;12.71;78.66
72114;SHT31;59989;46.220;19.888;2022-11-15T13:00:46;12.17;81.23
72114;SHT31;59989;46.220;19.888;2022-11-15T13:07:54;12.06;81.26
72114;SHT31;59989;46.220;19.888;2022-11-15T13:10:57;11.97;81.99
72114;SHT31;59989;46.220;19.888;2022-11-15T13:14:00;11.90;82.98
72114;SHT31;59989;46.220;19.888;2022-11-15T13:20:29;11.58;83.95
72114;SHT31;59989;46.220;19.888;2022-11-15T13:23:32;11.52;84.21
72114;SHT31;59989;46.220;19.888;2022-11-15T13:26:34;11.55;84.60
72114;SHT31;59989;46.220;19.888;2022-11-15T13:29:43;11.59;84.44
72114;SHT31;59989;46.220;19.888;2022-11-15T13:32:45;11.54;84.94
72114;SHT31;59989;46.220;19.888;2022-11-15T13:35:51;11.43;85.06
72114;SHT31;59989;46.220;19.888;2022-11-15T13:39:25;11.49;84.99
72114;SHT31;59989;46.220;19.888;2022-11-15T13:42:28;11.35;85.22
72114;SHT31;59989;46.220;19.888;2022-11-15T13:45:30;11.42;85.49
72114;SHT31;59989;46.220;19.888;2022-11-15T13:48:33;11.32;85.54
72114;SHT31;59989;46.220;19.888;2022-11-15T13:51:44;11.17;86.39
72114;SHT31;59989;46.220;19.888;2022-11-15T13:55:24;11.00;87.36
72114;SHT31;59989;46.220;19.888;2022-11-15T13:58:27;11.07;86.90
72114;SHT31;59989;46.220;19.888;2022-11-15T14:01:30;11.18;86.84
72114;SHT31;59989;46.220;19.888;2022-11-15T14:04:33;11.12;86.36
72114;SHT31;59989;46.220;19.888;2022-11-15T14:07:36;11.06;86.66
72114;SHT31;59989;46.220;19.888;2022-11-15T14:10:46;11.12;86.24
72114;SHT31;59989;46.220;19.888;2022-11-15T14:14:19;11.10;86.13
72114;SHT31;59989;46.220;19.888;2022-11-15T14:20:35;10.77;87.33
72114;SHT31;59989;46.220;19.888;2022-11-15T14:23:39;10.76;87.45
72114;SHT31;59989;46.220;19.888;2022-11-15T14:26:42;10.66;88.03
72114;SHT31;59989;46.220;19.888;2022-11-15T14:29:46;10.64;88.24
72114;SHT31;59989;46.220;19.888;2022-11-15T14:32:50;10.59;88.58
72114;SHT31;59989;46.220;19.888;2022-11-15T14:35:52;10.61;88.62
72114;SHT31;59989;46.220;19.888;2022-11-15T14:38:54;10.67;88.71
72114;SHT31;59989;46.220;19.888;2022-11-15T14:41:57;10.59;88.98
72114;SHT31;59989;46.220;19.888;2022-11-15T14:44:59;10.56;89.10
72114;SHT31;59989;46.220;19.888;2022-11-15T14:48:02;10.46;89.38
72114;SHT31;59989;46.220;19.888;2022-11-15T14:51:11;10.45;89.49
72114;SHT31;59989;46.220;19.888;2022-11-15T14:54:14;10.45;89.52
72114;SHT31;59989;46.220;19.888;2022-11-15T14:57:16;10.38;89.70
72114;SHT31;59989;46.220;19.888;2022-11-15T15:00:19;10.40;89.85
72114;SHT31;59989;46.220;19.888;2022-11-15T15:03:22;10.40;89.73
72114;SHT31;59989;46.220;19.888;2022-11-15T15:06:25;10.38;89.99
72114;SHT31;59989;46.220;19.888;2022-11-15T15:09:27;10.39;89.88
72114;SHT31;59989;46.220;19.888;2022-11-15T15:12:30;10.40;89.88
72114;SHT31;59989;46.220;19.888;2022-11-15T15:15:35;10.43;89.73
72114;SHT31;59989;46.220;19.888;2022-11-15T15:18:38;10.38;89.98
72114;SHT31;59989;46.220;19.888;2022-11-15T15:21:40;10.36;90.00
72114;SHT31;59989;46.220;19.888;2022-11-15T15:24:46;10.35;90.08
72114;SHT31;59989;46.220;19.888;2022-11-15T15:27:49;10.26;90.35
72114;SHT31;59989;46.220;19.888;2022-11-15T15:30:52;10.23;90.56
72114;SHT31;59989;46.220;19.888;2022-11-15T15:33:55;10.21;90.59
72114;SHT31;59989;46.220;19.888;2022-11-15T15:40:21;10.25;90.64
72114;SHT31;59989;46.220;19.888;2022-11-15T15:43:24;10.23;90.80
72114;SHT31;59989;46.220;19.888;2022-11-15T15:46:26;10.18;90.77
72114;SHT31;59989;46.220;19.888;2022-11-15T15:49:29;10.18;90.76
72114;SHT31;59989;46.220;19.888;2022-11-15T15:52:32;10.25;90.85
72114;SHT31;59989;46.220;19.888;2022-11-15T15:55:35;10.22;90.85
72114;SHT31;59989;46.220;19.888;2022-11-15T15:58:37;10.19;90.88
72114;SHT31;59989;46.220;19.888;2022-11-15T16:01:40;10.16;90.96
72114;SHT31;59989;46.220;19.888;2022-11-15T16:04:43;10.16;91.04
72114;SHT31;59989;46.220;19.888;2022-11-15T16:07:46;10.19;91.07
72114;SHT31;59989;46.220;19.888;2022-11-15T16:10:49;10.18;91.18
72114;SHT31;59989;46.220;19.888;2022-11-15T16:13:52;10.18;91.12
72114;SHT31;59989;46.220;19.888;2022-11-15T16:16:55;10.21;91.06
72114;SHT31;59989;46.220;19.888;2022-11-15T16:19:57;10.22;91.03
72114;SHT31;59989;46.220;19.888;2022-11-15T16:23:01;10.19;91.04
72114;SHT31;59989;46.220;19.888;2022-11-15T16:26:21;10.23;91.06
72114;SHT31;59989;46.220;19.888;2022-11-15T16:29:25;10.23;91.03
72114;SHT31;59989;46.220;19.888;2022-11-15T16:32:28;10.21;91.20
72114;SHT31;59989;46.220;19.888;2022-11-15T16:35:31;10.16;91.31
72114;SHT31;59989;46.220;19.888;2022-11-15T16:38:33;10.15;91.45
72114;SHT31;59989;46.220;19.888;2022-11-15T16:41:36;10.16;91.40
72114;SHT31;59989;46.220;19.888;2022-11-15T16:44:38;10.18;91.45
72114;SHT31;59989;46.220;19.888;2022-11-15T16:47:41;10.16;91.48
72114;SHT31;59989;46.220;19.888;2022-11-15T16:50:45;10.15;91.64
72114;SHT31;59989;46.220;19.888;2022-11-15T16:53:48;10.12;91.88
72114;SHT31;59989;46.220;19.888;2022-11-15T16:56:51;10.13;91.89
72114;SHT31;59989;46.220;19.888;2022-11-15T16:59:54;10.15;91.94
72114;SHT31;59989;46.220;19.888;2022-11-15T17:02:56;10.13;91.95
72114;SHT31;59989;46.220;19.888;2022-11-15T17:05:59;10.03;92.50
72114;SHT31;59989;46.220;19.888;2022-11-15T17:09:02;9.94;92.58
72114;SHT31;59989;46.220;19.888;2022-11-15T17:12:05;9.90;92.78
72114;SHT31;59989;46.220;19.888;2022-11-15T17:15:10;9.85;92.99
72114;SHT31;59989;46.220;19.888;2022-11-15T17:18:13;9.87;93.14
72114;SHT31;59989;46.220;19.888;2022-11-15T17:21:19;9.88;93.23
72114;SHT31;59989;46.220;19.888;2022-11-15T17:24:21;9.91;93.24
72114;SHT31;59989;46.220;19.888;2022-11-15T17:27:24;9.95;93.27
72114;SHT31;59989;46.220;19.888;2022-11-15T17:30:27;9.98;93.26
72114;SHT31;59989;46.220;19.888;2022-11-15T17:33:30;10.05;93.23
72114;SHT31;59989;46.220;19.888;2022-11-15T17:36:33;10.05;93.32
72114;SHT31;59989;46.220;19.888;2022-11-15T17:39:36;10.06;93.24
72114;SHT31;59989;46.220;19.888;2022-11-15T17:42:41;10.05;93.38
72114;SHT31;59989;46.220;19.888;2022-11-15T17:45:44;10.08;93.37
72114;SHT31;59989;46.220;19.888;2022-11-15T17:48:47;10.06;93.41
72114;SHT31;59989;46.220;19.888;2022-11-15T17:51:49;10.05;93.55
72114;SHT31;59989;46.220;19.888;2022-11-15T17:54:52;10.11;93.46
72114;SHT31;59989;46.220;19.888;2022-11-15T17:57:54;10.11;93.34
72114;SHT31;59989;46.220;19.888;2022-11-15T18:01:17;10.06;93.32
72114;SHT31;59989;46.220;19.888;2022-11-15T18:04:20;9.95;93.48
72114;SHT31;59989;46.220;19.888;2022-11-15T18:07:23;9.97;93.50
72114;SHT31;59989;46.220;19.888;2022-11-15T18:10:25;9.94;93.60
72114;SHT31;59989;46.220;19.888;2022-11-15T18:13:28;9.98;93.56
72114;SHT31;59989;46.220;19.888;2022-11-15T18:16:34;9.95;93.58
72114;SHT31;59989;46.220;19.888;2022-11-15T18:19:37;9.90;93.60
72114;SHT31;59989;46.220;19.888;2022-11-15T18:22:39;9.91;93.77
72114;SHT31;59989;46.220;19.888;2022-11-15T18:25:42;9.91;93.74
72114;SHT31;59989;46.220;19.888;2022-11-15T18:28:47;9.87;93.82
72114;SHT31;59989;46.220;19.888;2022-11-15T18:31:50;9.85;93.72
72114;SHT31;59989;46.220;19.888;2022-11-15T18:34:56;9.85;93.76
72114;SHT31;59989;46.220;19.888;2022-11-15T18:37:58;9.84;93.82
72114;SHT31;59989;46.220;19.888;2022-11-15T18:41:27;9.85;93.78
72114;SHT31;59989;46.220;19.888;2022-11-15T18:44:30;9.80;93.91
72114;SHT31;59989;46.220;19.888;2022-11-15T18:47:33;9.77;94.11
72114;SHT31;59989;46.220;19.888;2022-11-15T18:50:36;9.75;94.14
72114;SHT31;59989;46.220;19.888;2022-11-15T18:53:39;9.75;94.07
72114;SHT31;59989;46.220;19.888;2022-11-15T18:56:42;9.73;94.07
72114;SHT31;59989;46.220;19.888;2022-11-15T18:59:48;9.69;94.23
72114;SHT31;59989;46.220;19.888;2022-11-15T19:02:53;9.67;94.29
72114;SHT31;59989;46.220;19.888;2022-11-15T19:09:04;9.60;94.32
72114;SHT31;59989;46.220;19.888;2022-11-15T19:12:07;9.63;94.34
72114;SHT31;59989;46.220;19.888;2022-11-15T19:15:09;9.55;94.50
72114;SHT31;59989;46.220;19.888;2022-11-15T19:18:13;9.60;94.39
72114;SHT31;59989;46.220;19.888;2022-11-15T19:21:16;9.51;94.55
72114;SHT31;59989;46.220;19.888;2022-11-15T19:24:19;9.51;94.66
72114;SHT31;59989;46.220;19.888;2022-11-15T19:27:22;9.50;94.77
72114;SHT31;59989;46.220;19.888;2022-11-15T19:30:26;9.48;94.66
72114;SHT31;59989;46.220;19.888;2022-11-15T19:33:29;9.50;94.73
72114;SHT31;59989;46.220;19.888;2022-11-15T19:36:34;9.47;94.90
72114;SHT31;59989;46.220;19.888;2022-11-15T19:39:37;9.43;94.92
72114;SHT31;59989;46.220;19.888;2022-11-15T19:42:42;9.43;94.93
72114;SHT31;59989;46.220;19.888;2022-11-15T19:45:51;9.39;94.98
72114;SHT31;59989;46.220;19.888;2022-11-15T19:48:58;9.29;95.00
72114;SHT31;59989;46.220;19.888;2022-11-15T19:52:00;9.23;95.08
72114;SHT31;59989;46.220;19.888;2022-11-15T19:55:03;9.13;95.16
72114;SHT31;59989;46.220;19.888;2022-11-15T19:58:06;9.15;95.21
72114;SHT31;59989;46.220;19.888;2022-11-15T20:01:16;9.12;95.17
72114;SHT31;59989;46.220;19.888;2022-11-15T20:04:20;9.11;95.27
72114;SHT31;59989;46.220;19.888;2022-11-15T20:07:23;9.08;95.33
72114;SHT31;59989;46.220;19.888;2022-11-15T20:10:27;9.08;95.38
72114;SHT31;59989;46.220;19.888;2022-11-15T20:13:30;9.12;95.32
72114;SHT31;59989;46.220;19.888;2022-11-15T20:16:33;9.11;95.36
72114;SHT31;59989;46.220;19.888;2022-11-15T20:19:36;9.12;95.38
72114;SHT31;59989;46.220;19.888;2022-11-15T20:22:38;9.08;95.51
72114;SHT31;59989;46.220;19.888;2022-11-15T20:25:45;9.06;95.55
72114;SHT31;59989;46.220;19.888;2022-11-15T20:28:48;9.06;95.53
72114;SHT31;59989;46.220;19.888;2022-11-15T20:31:51;9.08;95.52
72114;SHT31;59989;46.220;19.888;2022-11-15T20:34:55;9.11;95.51
72114;SHT31;59989;46.220;19.888;2022-11-15T20:37:57;9.11;95.51
72114;SHT31;59989;46.220;19.888;2022-11-15T20:41:00;9.13;95.53
72114;SHT31;59989;46.220;19.888;2022-11-15T20:44:03;9.09;95.57
72114;SHT31;59989;46.220;19.888;2022-11-15T20:47:05;9.12;95.57
72114;SHT31;59989;46.220;19.888;2022-11-15T20:50:08;9.12;95.57
72114;SHT31;59989;46.220;19.888;2022-11-15T20:53:31;9.13;95.67
72114;SHT31;59989;46.220;19.888;2022-11-15T20:56:34;9.12;95.72
72114;SHT31;59989;46.220;19.888;2022-11-15T20:59:37;9.13;95.67
72114;SHT31;59989;46.220;19.888;2022-11-15T21:02:39;9.08;95.80
72114;SHT31;59989;46.220;19.888;2022-11-15T21:05:42;9.11;95.75
72114;SHT31;59989;46.220;19.888;2022-11-15T21:08:51;9.08;95.72
72114;SHT31;59989;46.220;19.888;2022-11-15T21:12:13;9.06;95.82
72114;SHT31;59989;46.220;19.888;2022-11-15T21:15:16;9.08;95.80
72114;SHT31;59989;46.220;19.888;2022-11-15T21:18:18;9.09;95.85
72114;SHT31;59989;46.220;19.888;2022-11-15T21:21:20;9.09;95.85
72114;SHT31;59989;46.220;19.888;2022-11-15T21:24:23;9.11;95.89
72114;SHT31;59989;46.220;19.888;2022-11-15T21:27:25;9.05;95.99
72114;SHT31;59989;46.220;19.888;2022-11-15T21:30:29;9.05;95.99
72114;SHT31;59989;46.220;19.888;2022-11-15T21:33:33;9.04;95.98
72114;SHT31;59989;46.220;19.888;2022-11-15T21:36:35;9.05;95.96
72114;SHT31;59989;46.220;19.888;2022-11-15T21:39:38;9.06;95.92
72114;SHT31;59989;46.220;19.888;2022-11-15T21:42:40;9.02;95.90
72114;SHT31;59989;46.220;19.888;2022-11-15T21:45:49;9.02;96.00
72114;SHT31;59989;46.220;19.888;2022-11-15T21:48:56;8.98;96.09
72114;SHT31;59989;46.220;19.888;2022-11-15T21:51:59;9.01;96.01
72114;SHT31;59989;46.220;19.888;2022-11-15T21:55:01;9.02;96.02
72114;SHT31;59989;46.220;19.888;2022-11-15T21:58:04;9.02;95.98
72114;SHT31;59989;46.220;19.888;2022-11-15T22:01:08;9.05;96.06
72114;SHT31;59989;46.220;19.888;2022-11-15T22:04:29;9.05;96.06
72114;SHT31;59989;46.220;19.888;2022-11-15T22:07:32;9.01;95.97
72114;SHT31;59989;46.220;19.888;2022-11-15T22:10:34;9.01;96.04
72114;SHT31;59989;46.220;19.888;2022-11-15T22:13:37;9.02;96.00